Etusivu
METAR-TAF:

METAR-TAF

Lentoasemat :

Hefei, Kiina

Leveyspiiri: 31-52N, Pituuspiiri: 117-14E, korkeus merenpinnasta: 36 m

Tämänhetkinen sää

Tämä raportti tehtiin 26 minuuttia sitten, kello 17.00 UTC
Tuuli 8 kn idästä/koillisesta
Lämpötila 5°C
Kosteus 75%
Ilmanpaine 1037 hPa
Näkyvyys: 7000 m

METAR: ZSOF 051700Z 07004MPS 7000 NSC 05/01 Q1037 NOSIG

Aika: 01:26 (17:26 UTC)

Sääennuste

Tämä raportti tehtiin 8 tuntia ja 24 minuuttia sitten, kello 09.02 UTC
Ennuste voimassa 05. päivästä klo 12 UTC - 06. päivään klo 12 UTC
Tuuli 6 kn idästä/koillisesta
Näkyvyys: 4000 m
usvaa

TAF: ZSOF 050902Z 0512/0612 06003MPS 4000 HZ NSC TX09/0607Z TN00/0522Z

Säähavainnot ja -ennusteet yli 4000 lentoasemalta (METAR- ja TAF-raportit).

Käytössä olevat sääasemat on merkitty karttaan keltaisilla ja punaisilla pisteillä.

Aseta hiiri pisteen päälle nähdäksesi sääaseman nimen.

Klikkaa sitten nähdäksesi säähavainnot ja -ennusteet.

Kartan vaihtaminen: klikkaa mustalla rastilla varustettuja vihreitä pisteitä, niin voit zoomata sisään; viivalla varustettua vihreää pistettä, niin voit zoomata ulos tai vihreitä nuolia, niin pääset viereisille kartoille.


METAR-TAF: